DLH8BM EDDM-EDDL
Flight info
| Callsign | DLH8BM |
|---|---|
| Flight time | 0h 51m |
| Altitude | 30000 |
| Route | GIVMI6Q/08L GIVMI Y101 INBED DCT REKDI DCT LOHRE Z850 ARPEG/N0362F240 Z850 ADEMI T854 DOMUX |
| Aircraft | A320/M-SDE3FGHIRWY/LB1 |
Departure
| Time | 2026-05-04 15:41 |
|---|---|
| Airport | Munich Airport (EDDM) |
Arrival
| Time | 2026-05-04 16:33 |
|---|---|
| Airport | Düsseldorf Airport (EDDL) |
| Time | Latitude | Longitude | Altitude | Speed | Heading |
|---|---|---|---|---|---|
| 2026-05-04 15:26 | 48.35587 | 11.79995 | 1486 ft | 0 kts | 264° |
| 2026-05-04 15:31 | 48.35589 | 11.80044 | 1473 ft | 2 kts | 279° |
| 2026-05-04 15:31 | 48.35584 | 11.80068 | 1471 ft | 2 kts | 311° |
| 2026-05-04 15:32 | 48.35564 | 11.80083 | 1473 ft | 0 kts | 354° |
| 2026-05-04 15:32 | 48.35582 | 11.80080 | 1471 ft | 5 kts | 354° |
| 2026-05-04 15:33 | 48.35724 | 11.80076 | 1480 ft | 13 kts | 355° |
| 2026-05-04 15:34 | 48.35818 | 11.79851 | 1473 ft | 11 kts | 263° |
| 2026-05-04 15:34 | 48.35808 | 11.79714 | 1485 ft | 15 kts | 263° |
| 2026-05-04 15:34 | 48.35799 | 11.79410 | 1480 ft | 11 kts | 307° |
| 2026-05-04 15:35 | 48.35967 | 11.79338 | 1486 ft | 10 kts | 353° |
| 2026-05-04 15:35 | 48.36031 | 11.79326 | 1474 ft | 10 kts | 353° |
| 2026-05-04 15:35 | 48.36088 | 11.79266 | 1478 ft | 13 kts | 275° |
| 2026-05-04 15:36 | 48.36062 | 11.78916 | 1473 ft | 21 kts | 264° |
| 2026-05-04 15:36 | 48.36044 | 11.78680 | 1485 ft | 24 kts | 263° |
| 2026-05-04 15:36 | 48.36024 | 11.78412 | 1476 ft | 26 kts | 263° |
| 2026-05-04 15:37 | 48.36002 | 11.78136 | 1476 ft | 27 kts | 263° |
| 2026-05-04 15:37 | 48.35980 | 11.77845 | 1485 ft | 28 kts | 263° |
| 2026-05-04 15:37 | 48.35957 | 11.77544 | 1482 ft | 29 kts | 264° |
| 2026-05-04 15:37 | 48.35934 | 11.77257 | 1479 ft | 24 kts | 263° |
| 2026-05-04 15:38 | 48.35933 | 11.77085 | 1484 ft | 13 kts | 293° |
| 2026-05-04 15:38 | 48.35990 | 11.76990 | 1478 ft | 13 kts | 333° |
| 2026-05-04 15:38 | 48.36071 | 11.76967 | 1485 ft | 10 kts | 353° |
| 2026-05-04 15:38 | 48.36141 | 11.76955 | 1485 ft | 11 kts | 353° |
| 2026-05-04 15:39 | 48.36226 | 11.76940 | 1478 ft | 13 kts | 354° |
| 2026-05-04 15:39 | 48.36285 | 11.76961 | 1483 ft | 8 kts | 51° |
| 2026-05-04 15:39 | 48.36297 | 11.77031 | 1475 ft | 0 kts | 84° |
| 2026-05-04 15:40 | 48.36298 | 11.77045 | 1479 ft | 8 kts | 84° |
| 2026-05-04 15:40 | 48.36327 | 11.77415 | 1485 ft | 72 kts | 83° |
| 2026-05-04 15:41 | 48.36411 | 11.78506 | 1474 ft | 135 kts | 83° |
| 2026-05-04 15:41 | 48.36534 | 11.80154 | 1610 ft | 173 kts | 83° |
| 2026-05-04 15:41 | 48.36664 | 11.81930 | 2402 ft | 170 kts | 82° |
| 2026-05-04 15:41 | 48.36812 | 11.83724 | 3028 ft | 179 kts | 82° |
| 2026-05-04 15:42 | 48.37119 | 11.85606 | 3479 ft | 193 kts | 56° |
| 2026-05-04 15:42 | 48.38197 | 11.86817 | 4015 ft | 201 kts | 14° |
| 2026-05-04 15:42 | 48.39608 | 11.86851 | 4604 ft | 207 kts | 356° |
| 2026-05-04 15:42 | 48.41081 | 11.86571 | 5128 ft | 222 kts | 342° |
| 2026-05-04 15:43 | 48.42460 | 11.85397 | 5703 ft | 237 kts | 316° |
| 2026-05-04 15:43 | 48.43571 | 11.83462 | 6308 ft | 254 kts | 309° |
| 2026-05-04 15:43 | 48.44761 | 11.81335 | 6787 ft | 276 kts | 309° |
| 2026-05-04 15:43 | 48.46028 | 11.79107 | 6918 ft | 281 kts | 310° |
| 2026-05-04 15:44 | 48.46890 | 11.77598 | 6943 ft | 281 kts | 310° |
| 2026-05-04 15:44 | 48.48166 | 11.75364 | 6945 ft | 281 kts | 310° |
| 2026-05-04 15:44 | 48.49443 | 11.73126 | 6946 ft | 281 kts | 310° |
| 2026-05-04 15:44 | 48.50718 | 11.70890 | 6941 ft | 281 kts | 310° |
| 2026-05-04 15:45 | 48.51991 | 11.68656 | 6945 ft | 281 kts | 310° |
| 2026-05-04 15:45 | 48.53257 | 11.66429 | 6946 ft | 281 kts | 309° |
| 2026-05-04 15:45 | 48.54533 | 11.64176 | 7182 ft | 285 kts | 309° |
| 2026-05-04 15:45 | 48.55861 | 11.61826 | 7651 ft | 305 kts | 309° |
| 2026-05-04 15:46 | 48.57271 | 11.59324 | 8281 ft | 321 kts | 309° |
| 2026-05-04 15:46 | 48.58744 | 11.56712 | 9022 ft | 332 kts | 308° |
| 2026-05-04 15:46 | 48.60262 | 11.54019 | 9816 ft | 342 kts | 308° |
| 2026-05-04 15:46 | 48.61823 | 11.51248 | 10548 ft | 350 kts | 308° |
| 2026-05-04 15:47 | 48.63424 | 11.48401 | 11191 ft | 361 kts | 308° |
| 2026-05-04 15:47 | 48.65074 | 11.45460 | 11834 ft | 372 kts | 308° |
| 2026-05-04 15:47 | 48.66770 | 11.42433 | 12490 ft | 378 kts | 308° |
| 2026-05-04 15:47 | 48.68448 | 11.39450 | 13804 ft | 364 kts | 308° |
| 2026-05-04 15:48 | 48.70159 | 11.36661 | 14830 ft | 361 kts | 315° |
| 2026-05-04 15:48 | 48.72178 | 11.34361 | 15621 ft | 365 kts | 323° |
| 2026-05-04 15:48 | 48.76432 | 11.30072 | 17055 ft | 371 kts | 323° |
| 2026-05-04 15:49 | 48.78590 | 11.27894 | 17767 ft | 374 kts | 323° |
| 2026-05-04 15:49 | 48.80760 | 11.25698 | 18435 ft | 377 kts | 323° |
| 2026-05-04 15:49 | 48.82952 | 11.23479 | 19043 ft | 380 kts | 323° |
| 2026-05-04 15:49 | 48.85299 | 11.21574 | 19658 ft | 386 kts | 334° |
| 2026-05-04 15:50 | 48.87851 | 11.20212 | 20268 ft | 391 kts | 339° |
| 2026-05-04 15:50 | 48.90440 | 11.18910 | 20884 ft | 393 kts | 339° |
| 2026-05-04 15:50 | 48.93046 | 11.17594 | 21473 ft | 396 kts | 338° |
| 2026-05-04 15:50 | 48.95666 | 11.16268 | 22054 ft | 398 kts | 338° |
| 2026-05-04 15:51 | 48.98304 | 11.14932 | 22606 ft | 401 kts | 338° |
| 2026-05-04 15:51 | 49.00962 | 11.13580 | 23171 ft | 404 kts | 338° |
| 2026-05-04 15:51 | 49.03637 | 11.12215 | 23686 ft | 407 kts | 338° |
| 2026-05-04 15:51 | 49.06371 | 11.10818 | 24155 ft | 410 kts | 338° |
| 2026-05-04 15:52 | 49.09046 | 11.09448 | 24615 ft | 412 kts | 338° |
| 2026-05-04 15:52 | 49.11774 | 11.08050 | 25069 ft | 415 kts | 338° |
| 2026-05-04 15:52 | 49.14516 | 11.06649 | 25515 ft | 417 kts | 338° |
| 2026-05-04 15:52 | 49.17280 | 11.05238 | 25957 ft | 420 kts | 338° |
| 2026-05-04 15:53 | 49.20105 | 11.03796 | 26385 ft | 422 kts | 338° |
| 2026-05-04 15:53 | 49.22843 | 11.02390 | 26821 ft | 424 kts | 338° |
| 2026-05-04 15:53 | 49.25646 | 11.00944 | 27253 ft | 426 kts | 338° |
| 2026-05-04 15:53 | 49.28468 | 10.99486 | 27670 ft | 429 kts | 338° |
| 2026-05-04 15:54 | 49.31302 | 10.98024 | 28082 ft | 431 kts | 338° |
| 2026-05-04 15:54 | 49.34303 | 10.96455 | 28523 ft | 432 kts | 335° |
| 2026-05-04 15:54 | 49.36903 | 10.94577 | 28897 ft | 430 kts | 326° |
| 2026-05-04 15:54 | 49.39370 | 10.92007 | 29298 ft | 428 kts | 317° |
| 2026-05-04 15:55 | 49.41504 | 10.88926 | 29692 ft | 426 kts | 308° |
| 2026-05-04 15:55 | 49.43393 | 10.85422 | 29946 ft | 426 kts | 305° |
| 2026-05-04 15:55 | 49.45253 | 10.81901 | 29984 ft | 410 kts | 305° |
| 2026-05-04 15:55 | 49.47015 | 10.78565 | 29993 ft | 396 kts | 305° |
| 2026-05-04 15:56 | 49.50417 | 10.72094 | 29985 ft | 389 kts | 305° |
| 2026-05-04 15:56 | 49.53832 | 10.65581 | 29976 ft | 388 kts | 304° |
| 2026-05-04 15:57 | 49.57220 | 10.59112 | 29979 ft | 388 kts | 304° |
| 2026-05-04 15:57 | 49.60602 | 10.52631 | 29980 ft | 388 kts | 304° |
| 2026-05-04 15:58 | 49.63981 | 10.46144 | 29978 ft | 387 kts | 304° |
| 2026-05-04 15:58 | 49.67260 | 10.39565 | 29981 ft | 386 kts | 301° |
| 2026-05-04 15:59 | 49.70263 | 10.32720 | 29983 ft | 384 kts | 299° |
| 2026-05-04 15:59 | 49.73202 | 10.25831 | 29983 ft | 384 kts | 299° |
| 2026-05-04 16:00 | 49.76188 | 10.18972 | 29983 ft | 384 kts | 300° |
| 2026-05-04 16:00 | 49.79193 | 10.12144 | 29987 ft | 384 kts | 300° |
| 2026-05-04 16:01 | 49.82201 | 10.05306 | 29988 ft | 384 kts | 300° |
| 2026-05-04 16:01 | 49.85199 | 9.98448 | 29988 ft | 384 kts | 299° |
| 2026-05-04 16:02 | 49.88190 | 9.91583 | 29984 ft | 384 kts | 299° |
| 2026-05-04 16:03 | 49.92658 | 9.81267 | 29982 ft | 384 kts | 299° |
| 2026-05-04 16:03 | 49.95629 | 9.74398 | 29975 ft | 383 kts | 299° |
| 2026-05-04 16:04 | 49.98605 | 9.67510 | 29973 ft | 384 kts | 299° |
| 2026-05-04 16:04 | 50.03060 | 9.57165 | 29978 ft | 384 kts | 298° |
| 2026-05-04 16:05 | 50.06055 | 9.50278 | 29975 ft | 386 kts | 303° |
| 2026-05-04 16:05 | 50.10002 | 9.44472 | 29972 ft | 395 kts | 316° |
| 2026-05-04 16:06 | 50.12139 | 9.41786 | 29975 ft | 395 kts | 316° |
| 2026-05-04 16:07 | 50.20681 | 9.30998 | 29973 ft | 395 kts | 315° |
| 2026-05-04 16:08 | 50.29193 | 9.20140 | 29965 ft | 395 kts | 315° |
| 2026-05-04 16:09 | 50.39886 | 9.06473 | 29958 ft | 396 kts | 315° |
| 2026-05-04 16:10 | 50.48422 | 8.95514 | 29962 ft | 397 kts | 315° |
| 2026-05-04 16:11 | 50.57055 | 8.84622 | 29966 ft | 399 kts | 318° |
| 2026-05-04 16:12 | 50.70345 | 8.68814 | 29956 ft | 399 kts | 317° |
| 2026-05-04 16:13 | 50.79166 | 8.58116 | 29960 ft | 400 kts | 317° |
| 2026-05-04 16:14 | 50.88000 | 8.47362 | 29971 ft | 401 kts | 317° |
| 2026-05-04 16:15 | 50.94807 | 8.39050 | 29994 ft | 429 kts | 317° |
| 2026-05-04 16:16 | 50.99429 | 8.33396 | 29601 ft | 401 kts | 317° |
| 2026-05-04 16:16 | 51.06333 | 8.26489 | 27245 ft | 385 kts | 326° |
| 2026-05-04 16:17 | 51.10206 | 8.23031 | 25948 ft | 378 kts | 326° |
| 2026-05-04 16:18 | 51.16984 | 8.17003 | 23739 ft | 366 kts | 326° |
| 2026-05-04 16:18 | 51.19198 | 8.15034 | 22959 ft | 363 kts | 326° |
| 2026-05-04 16:19 | 51.24157 | 8.07038 | 20740 ft | 329 kts | 283° |
| 2026-05-04 16:19 | 51.25433 | 8.00095 | 19305 ft | 324 kts | 282° |
| 2026-05-04 16:20 | 51.27315 | 7.89867 | 17289 ft | 316 kts | 283° |
| 2026-05-04 16:20 | 51.28533 | 7.83199 | 15959 ft | 310 kts | 283° |
| 2026-05-04 16:21 | 51.30314 | 7.73345 | 14138 ft | 303 kts | 283° |
| 2026-05-04 16:22 | 51.31466 | 7.66927 | 12886 ft | 298 kts | 283° |
| 2026-05-04 16:22 | 51.33158 | 7.57530 | 11062 ft | 289 kts | 283° |
| 2026-05-04 16:23 | 51.34823 | 7.48171 | 9150 ft | 280 kts | 283° |
| 2026-05-04 16:24 | 51.36874 | 7.36611 | 6584 ft | 270 kts | 283° |
| 2026-05-04 16:25 | 51.37883 | 7.30899 | 5302 ft | 264 kts | 282° |
| 2026-05-04 16:26 | 51.39815 | 7.19898 | 4188 ft | 237 kts | 282° |
| 2026-05-04 16:26 | 51.41110 | 7.12474 | 3338 ft | 228 kts | 282° |
| 2026-05-04 16:27 | 51.41904 | 7.07570 | 3005 ft | 224 kts | 272° |
| 2026-05-04 16:28 | 51.40212 | 7.01050 | 3004 ft | 204 kts | 231° |
| 2026-05-04 16:28 | 51.37874 | 6.96097 | 2901 ft | 176 kts | 231° |
| 2026-05-04 16:29 | 51.35014 | 6.90053 | 2050 ft | 160 kts | 231° |
| 2026-05-04 16:30 | 51.33246 | 6.86320 | 1474 ft | 131 kts | 230° |
| 2026-05-04 16:31 | 51.32139 | 6.83987 | 1107 ft | 130 kts | 231° |
| 2026-05-04 16:31 | 51.30501 | 6.80537 | 561 ft | 129 kts | 231° |
| 2026-05-04 16:32 | 51.28876 | 6.77121 | 116 ft | 103 kts | 232° |
| 2026-05-04 16:33 | 51.28382 | 6.76097 | 115 ft | 16 kts | 221° |
| 2026-05-04 16:33 | 51.28206 | 6.76080 | 116 ft | 11 kts | 140° |
| 2026-05-04 16:34 | 51.28164 | 6.76279 | 116 ft | 11 kts | 139° |
| 2026-05-04 16:34 | 51.28118 | 6.76385 | 117 ft | 12 kts | 131° |
| 2026-05-04 16:35 | 51.28068 | 6.76532 | 118 ft | 0 kts | 97° |